sensor_id;sensor_type;location;lat;lon;timestamp;pressure;altitude;pressure_sealevel;temperature;humidity
61484;BME280;47349;55.640;37.692;2022-11-15T00:00:32;99850.06;;;-1.19;55.28
61484;BME280;47349;55.640;37.692;2022-11-15T00:03:32;99879.78;;;-1.05;55.55
61484;BME280;47349;55.640;37.692;2022-11-15T00:06:32;99910.81;;;-0.83;56.27
61484;BME280;47349;55.640;37.692;2022-11-15T00:09:34;99886.78;;;-0.76;56.08
61484;BME280;47349;55.640;37.692;2022-11-15T00:12:34;99882.75;;;-0.82;55.19
61484;BME280;47349;55.640;37.692;2022-11-15T00:15:35;99871.28;;;-0.81;55.32
61484;BME280;47349;55.640;37.692;2022-11-15T00:18:37;99877.63;;;-0.71;55.56
61484;BME280;47349;55.640;37.692;2022-11-15T00:21:37;99870.88;;;-0.75;55.28
61484;BME280;47349;55.640;37.692;2022-11-15T00:24:37;99861.84;;;-0.71;55.21
61484;BME280;47349;55.640;37.692;2022-11-15T00:27:38;99866.16;;;-0.70;55.61
61484;BME280;47349;55.640;37.692;2022-11-15T00:30:38;99873.47;;;-0.61;55.39
61484;BME280;47349;55.640;37.692;2022-11-15T00:33:37;99853.09;;;-0.71;55.62
61484;BME280;47349;55.640;37.692;2022-11-15T00:36:37;99873.25;;;-0.58;55.78
61484;BME280;47349;55.640;37.692;2022-11-15T00:39:39;99869.03;;;-0.60;55.85
61484;BME280;47349;55.640;37.692;2022-11-15T00:42:38;99871.31;;;-0.68;56.04
61484;BME280;47349;55.640;37.692;2022-11-15T00:45:37;99865.91;;;-0.80;55.80
61484;BME280;47349;55.640;37.692;2022-11-15T00:48:37;99847.38;;;-0.78;55.72
61484;BME280;47349;55.640;37.692;2022-11-15T00:51:37;99840.72;;;-0.84;56.16
61484;BME280;47349;55.640;37.692;2022-11-15T00:54:37;99850.47;;;-0.71;56.24
61484;BME280;47349;55.640;37.692;2022-11-15T00:57:37;99847.72;;;-0.70;56.35
61484;BME280;47349;55.640;37.692;2022-11-15T01:00:37;99835.59;;;-0.85;57.27
61484;BME280;47349;55.640;37.692;2022-11-15T01:03:37;99836.41;;;-0.85;57.57
61484;BME280;47349;55.640;37.692;2022-11-15T01:06:37;99823.03;;;-0.94;56.85
61484;BME280;47349;55.640;37.692;2022-11-15T01:09:38;99804.59;;;-0.94;56.54
61484;BME280;47349;55.640;37.692;2022-11-15T01:12:37;99849.63;;;-0.72;56.52
61484;BME280;47349;55.640;37.692;2022-11-15T01:15:41;99835.53;;;-0.71;56.77
61484;BME280;47349;55.640;37.692;2022-11-15T01:18:41;99834.22;;;-0.78;56.69
61484;BME280;47349;55.640;37.692;2022-11-15T01:21:41;99847.78;;;-0.84;56.75
61484;BME280;47349;55.640;37.692;2022-11-15T01:24:42;99822.59;;;-0.88;56.98
61484;BME280;47349;55.640;37.692;2022-11-15T01:27:41;99838.88;;;-0.82;57.36
61484;BME280;47349;55.640;37.692;2022-11-15T01:30:41;99822.38;;;-0.98;57.20
61484;BME280;47349;55.640;37.692;2022-11-15T01:33:40;99819.44;;;-0.93;57.10
61484;BME280;47349;55.640;37.692;2022-11-15T01:36:42;99820.28;;;-0.93;57.46
61484;BME280;47349;55.640;37.692;2022-11-15T01:39:42;99816.72;;;-0.92;56.84
61484;BME280;47349;55.640;37.692;2022-11-15T01:42:42;99814.09;;;-0.92;56.87
61484;BME280;47349;55.640;37.692;2022-11-15T01:45:48;99786.44;;;-1.12;56.82
61484;BME280;47349;55.640;37.692;2022-11-15T01:48:51;99804.22;;;-1.15;57.11
61484;BME280;47349;55.640;37.692;2022-11-15T01:51:53;99807.63;;;-1.00;57.55
61484;BME280;47349;55.640;37.692;2022-11-15T01:55:16;99807.28;;;-1.09;57.59
61484;BME280;47349;55.640;37.692;2022-11-15T01:58:18;99798.38;;;-1.06;57.23
61484;BME280;47349;55.640;37.692;2022-11-15T02:01:18;99810.97;;;-1.11;56.64
61484;BME280;47349;55.640;37.692;2022-11-15T02:04:26;99812.03;;;-1.28;57.26
61484;BME280;47349;55.640;37.692;2022-11-15T02:07:30;99804.81;;;-1.24;57.54
61484;BME280;47349;55.640;37.692;2022-11-15T02:10:50;99792.50;;;-1.24;57.53
61484;BME280;47349;55.640;37.692;2022-11-15T02:13:50;99814.34;;;-1.09;57.32
61484;BME280;47349;55.640;37.692;2022-11-15T02:43:24;99783.50;;;-1.34;58.94
61484;BME280;47349;55.640;37.692;2022-11-15T02:50:12;99801.53;;;-1.42;59.65
61484;BME280;47349;55.640;37.692;2022-11-15T02:53:14;99776.13;;;-1.56;59.52
61484;BME280;47349;55.640;37.692;2022-11-15T02:56:15;99778.06;;;-1.45;59.47
61484;BME280;47349;55.640;37.692;2022-11-15T03:09:09;99785.13;;;-1.46;59.87
61484;BME280;47349;55.640;37.692;2022-11-15T03:12:20;99764.38;;;-1.50;59.97
61484;BME280;47349;55.640;37.692;2022-11-15T03:15:32;99773.72;;;-1.32;60.06
61484;BME280;47349;55.640;37.692;2022-11-15T03:18:41;99764.19;;;-1.47;60.13
61484;BME280;47349;55.640;37.692;2022-11-15T03:21:44;99766.09;;;-1.49;60.06
61484;BME280;47349;55.640;37.692;2022-11-15T03:24:37;99751.22;;;-1.50;59.45
61484;BME280;47349;55.640;37.692;2022-11-15T03:27:43;99742.97;;;-1.44;59.59
61484;BME280;47349;55.640;37.692;2022-11-15T03:30:45;99754.69;;;-1.50;59.24
61484;BME280;47349;55.640;37.692;2022-11-15T03:33:53;99754.38;;;-1.58;59.43
61484;BME280;47349;55.640;37.692;2022-11-15T03:36:55;99758.38;;;-1.52;59.72
61484;BME280;47349;55.640;37.692;2022-11-15T03:39:56;99773.97;;;-1.49;59.98
61484;BME280;47349;55.640;37.692;2022-11-15T03:43:30;99762.16;;;-1.57;59.66
61484;BME280;47349;55.640;37.692;2022-11-15T03:46:24;99784.50;;;-1.49;60.98
61484;BME280;47349;55.640;37.692;2022-11-15T03:49:49;99773.59;;;-1.58;60.67
61484;BME280;47349;55.640;37.692;2022-11-15T03:52:51;99771.63;;;-1.54;60.58
61484;BME280;47349;55.640;37.692;2022-11-15T03:56:31;99770.88;;;-1.70;61.12
61484;BME280;47349;55.640;37.692;2022-11-15T04:00:12;99755.06;;;-1.83;61.09
61484;BME280;47349;55.640;37.692;2022-11-15T04:03:12;99758.81;;;-1.87;62.27
61484;BME280;47349;55.640;37.692;2022-11-15T04:06:12;99779.16;;;-1.91;60.97
61484;BME280;47349;55.640;37.692;2022-11-15T04:08:58;99758.44;;;-1.81;60.88
61484;BME280;47349;55.640;37.692;2022-11-15T04:11:58;99754.13;;;-1.82;60.20
61484;BME280;47349;55.640;37.692;2022-11-15T04:15:06;99736.94;;;-1.73;60.58
61484;BME280;47349;55.640;37.692;2022-11-15T04:18:06;99760.50;;;-1.72;60.59
61484;BME280;47349;55.640;37.692;2022-11-15T04:20:56;99761.16;;;-1.83;61.01
61484;BME280;47349;55.640;37.692;2022-11-15T04:24:15;99751.88;;;-1.88;61.51
61484;BME280;47349;55.640;37.692;2022-11-15T04:27:14;99746.41;;;-1.85;61.13
61484;BME280;47349;55.640;37.692;2022-11-15T04:30:15;99757.84;;;-1.72;60.26
61484;BME280;47349;55.640;37.692;2022-11-15T04:33:01;99738.75;;;-1.88;60.22
61484;BME280;47349;55.640;37.692;2022-11-15T04:35:50;99750.09;;;-1.73;60.04
61484;BME280;47349;55.640;37.692;2022-11-15T04:38:56;99729.53;;;-1.81;60.43
61484;BME280;47349;55.640;37.692;2022-11-15T04:41:54;99736.09;;;-1.74;60.65
61484;BME280;47349;55.640;37.692;2022-11-15T04:44:54;99738.88;;;-1.63;60.60
61484;BME280;47349;55.640;37.692;2022-11-15T04:47:56;99716.28;;;-1.79;60.53
61484;BME280;47349;55.640;37.692;2022-11-15T04:50:56;99733.63;;;-1.63;60.81
61484;BME280;47349;55.640;37.692;2022-11-15T04:53:56;99715.63;;;-1.69;60.40
61484;BME280;47349;55.640;37.692;2022-11-15T04:56:56;99688.81;;;-1.74;59.58
61484;BME280;47349;55.640;37.692;2022-11-15T04:59:57;99704.91;;;-1.66;59.75
61484;BME280;47349;55.640;37.692;2022-11-15T05:02:59;99709.78;;;-1.60;59.65
61484;BME280;47349;55.640;37.692;2022-11-15T05:06:17;99724.94;;;-1.50;59.51
61484;BME280;47349;55.640;37.692;2022-11-15T05:09:18;99710.75;;;-1.75;59.35
61484;BME280;47349;55.640;37.692;2022-11-15T05:12:18;99737.34;;;-1.52;59.92
61484;BME280;47349;55.640;37.692;2022-11-15T05:15:38;99699.25;;;-1.60;59.43
61484;BME280;47349;55.640;37.692;2022-11-15T05:18:45;99708.88;;;-1.73;59.63
61484;BME280;47349;55.640;37.692;2022-11-15T05:21:47;99700.50;;;-1.65;59.44
61484;BME280;47349;55.640;37.692;2022-11-15T05:24:47;99718.97;;;-1.52;59.57
61484;BME280;47349;55.640;37.692;2022-11-15T05:27:51;99716.38;;;-1.67;59.38
61484;BME280;47349;55.640;37.692;2022-11-15T05:30:51;99722.44;;;-1.52;59.89
61484;BME280;47349;55.640;37.692;2022-11-15T05:33:51;99680.28;;;-1.77;59.57
61484;BME280;47349;55.640;37.692;2022-11-15T05:36:52;99714.72;;;-1.55;59.88
61484;BME280;47349;55.640;37.692;2022-11-15T05:39:56;99690.81;;;-1.65;59.84
61484;BME280;47349;55.640;37.692;2022-11-15T05:42:56;99695.53;;;-1.70;60.37
61484;BME280;47349;55.640;37.692;2022-11-15T05:46:05;99692.78;;;-1.54;60.33
61484;BME280;47349;55.640;37.692;2022-11-15T05:49:11;99705.53;;;-1.48;60.50
61484;BME280;47349;55.640;37.692;2022-11-15T05:52:15;99679.53;;;-1.52;60.13
61484;BME280;47349;55.640;37.692;2022-11-15T05:55:19;99694.97;;;-1.34;60.34
61484;BME280;47349;55.640;37.692;2022-11-15T05:58:20;99664.78;;;-1.55;60.06
61484;BME280;47349;55.640;37.692;2022-11-15T06:01:21;99659.69;;;-1.71;60.24
61484;BME280;47349;55.640;37.692;2022-11-15T06:04:21;99690.59;;;-1.47;60.14
61484;BME280;47349;55.640;37.692;2022-11-15T06:07:21;99697.13;;;-1.40;60.21
61484;BME280;47349;55.640;37.692;2022-11-15T06:10:21;99692.81;;;-1.41;59.76
61484;BME280;47349;55.640;37.692;2022-11-15T06:13:27;99666.50;;;-1.54;60.04
61484;BME280;47349;55.640;37.692;2022-11-15T06:16:37;99669.63;;;-1.62;59.66
61484;BME280;47349;55.640;37.692;2022-11-15T06:19:38;99692.19;;;-1.45;59.47
61484;BME280;47349;55.640;37.692;2022-11-15T06:22:26;99702.50;;;-1.42;59.76
61484;BME280;47349;55.640;37.692;2022-11-15T06:25:26;99673.88;;;-1.46;59.68
61484;BME280;47349;55.640;37.692;2022-11-15T06:28:31;99681.72;;;-1.32;59.81
61484;BME280;47349;55.640;37.692;2022-11-15T06:31:33;99676.25;;;-1.29;59.91
61484;BME280;47349;55.640;37.692;2022-11-15T06:34:35;99673.03;;;-1.20;59.65
61484;BME280;47349;55.640;37.692;2022-11-15T06:37:35;99676.91;;;-1.13;59.35
61484;BME280;47349;55.640;37.692;2022-11-15T06:40:35;99660.09;;;-1.10;59.47
61484;BME280;47349;55.640;37.692;2022-11-15T06:43:41;99648.41;;;-1.19;59.82
61484;BME280;47349;55.640;37.692;2022-11-15T06:46:41;99638.84;;;-1.20;60.23
61484;BME280;47349;55.640;37.692;2022-11-15T06:49:40;99658.84;;;-1.05;59.99
61484;BME280;47349;55.640;37.692;2022-11-15T06:52:41;99651.66;;;-1.28;59.90
61484;BME280;47349;55.640;37.692;2022-11-15T06:55:43;99658.19;;;-1.21;60.32
61484;BME280;47349;55.640;37.692;2022-11-15T06:58:44;99631.03;;;-1.34;61.05
61484;BME280;47349;55.640;37.692;2022-11-15T07:01:46;99662.50;;;-1.20;60.36
61484;BME280;47349;55.640;37.692;2022-11-15T07:04:47;99643.34;;;-1.22;60.56
61484;BME280;47349;55.640;37.692;2022-11-15T07:07:54;99650.19;;;-1.19;60.47
61484;BME280;47349;55.640;37.692;2022-11-15T07:10:58;99612.94;;;-1.39;60.52
61484;BME280;47349;55.640;37.692;2022-11-15T07:14:04;99661.13;;;-1.13;60.39
61484;BME280;47349;55.640;37.692;2022-11-15T07:17:06;99638.00;;;-1.20;60.12
61484;BME280;47349;55.640;37.692;2022-11-15T07:20:06;99649.91;;;-1.15;59.96
61484;BME280;47349;55.640;37.692;2022-11-15T07:23:07;99638.63;;;-1.17;60.21
61484;BME280;47349;55.640;37.692;2022-11-15T07:26:08;99612.94;;;-1.26;60.26
61484;BME280;47349;55.640;37.692;2022-11-15T07:29:13;99621.38;;;-1.21;60.03
61484;BME280;47349;55.640;37.692;2022-11-15T07:32:15;99623.72;;;-1.04;59.94
61484;BME280;47349;55.640;37.692;2022-11-15T07:35:15;99601.28;;;-1.22;59.89
61484;BME280;47349;55.640;37.692;2022-11-15T07:38:18;99621.84;;;-1.01;59.67
61484;BME280;47349;55.640;37.692;2022-11-15T07:41:19;99594.03;;;-1.06;59.57
61484;BME280;47349;55.640;37.692;2022-11-15T07:44:18;99575.50;;;-1.17;60.14
61484;BME280;47349;55.640;37.692;2022-11-15T07:47:19;99592.16;;;-1.04;59.58
61484;BME280;47349;55.640;37.692;2022-11-15T07:50:20;99604.78;;;-0.96;59.60
61484;BME280;47349;55.640;37.692;2022-11-15T07:53:20;99616.88;;;-0.93;60.12
61484;BME280;47349;55.640;37.692;2022-11-15T07:56:07;99600.56;;;-0.98;59.78
61484;BME280;47349;55.640;37.692;2022-11-15T07:59:07;99604.16;;;-0.99;59.63
61484;BME280;47349;55.640;37.692;2022-11-15T08:02:08;99580.44;;;-1.12;60.25
61484;BME280;47349;55.640;37.692;2022-11-15T08:05:08;99571.00;;;-1.15;60.29
61484;BME280;47349;55.640;37.692;2022-11-15T08:08:09;99570.66;;;-0.97;60.61
61484;BME280;47349;55.640;37.692;2022-11-15T08:11:09;99565.72;;;-0.89;60.49
61484;BME280;47349;55.640;37.692;2022-11-15T08:14:13;99574.91;;;-0.82;59.40
61484;BME280;47349;55.640;37.692;2022-11-15T08:17:34;99601.50;;;-0.74;59.58
61484;BME280;47349;55.640;37.692;2022-11-15T08:20:34;99574.34;;;-0.87;59.62
61484;BME280;47349;55.640;37.692;2022-11-15T08:23:34;99579.19;;;-0.68;59.60
61484;BME280;47349;55.640;37.692;2022-11-15T08:26:34;99603.19;;;-0.60;59.47
61484;BME280;47349;55.640;37.692;2022-11-15T08:29:34;99577.81;;;-0.74;59.33
61484;BME280;47349;55.640;37.692;2022-11-15T08:32:36;99565.63;;;-0.75;59.22
61484;BME280;47349;55.640;37.692;2022-11-15T08:35:44;99578.13;;;-0.53;59.42
61484;BME280;47349;55.640;37.692;2022-11-15T08:38:45;99568.31;;;-0.38;59.56
61484;BME280;47349;55.640;37.692;2022-11-15T08:41:45;99559.22;;;-0.34;58.63
61484;BME280;47349;55.640;37.692;2022-11-15T08:44:46;99579.66;;;-0.38;58.93
61484;BME280;47349;55.640;37.692;2022-11-15T08:47:47;99547.88;;;-0.47;59.32
61484;BME280;47349;55.640;37.692;2022-11-15T08:50:48;99567.44;;;-0.39;59.21
61484;BME280;47349;55.640;37.692;2022-11-15T08:53:47;99552.31;;;-0.48;59.22
61484;BME280;47349;55.640;37.692;2022-11-15T08:56:47;99558.03;;;-0.30;59.07
61484;BME280;47349;55.640;37.692;2022-11-15T08:59:47;99543.28;;;-0.57;58.80
61484;BME280;47349;55.640;37.692;2022-11-15T09:02:47;99548.22;;;-0.52;59.26
61484;BME280;47349;55.640;37.692;2022-11-15T09:05:47;99547.44;;;-0.41;59.53
61484;BME280;47349;55.640;37.692;2022-11-15T09:08:48;99545.13;;;-0.33;58.99
61484;BME280;47349;55.640;37.692;2022-11-15T09:11:49;99535.25;;;-0.42;58.91
61484;BME280;47349;55.640;37.692;2022-11-15T09:14:50;99529.53;;;-0.36;59.69
61484;BME280;47349;55.640;37.692;2022-11-15T09:17:38;99526.06;;;-0.37;59.45
61484;BME280;47349;55.640;37.692;2022-11-15T09:20:38;99512.06;;;-0.50;59.20
61484;BME280;47349;55.640;37.692;2022-11-15T09:23:40;99521.19;;;-0.30;59.70
61484;BME280;47349;55.640;37.692;2022-11-15T09:26:41;99511.38;;;-0.28;59.49
61484;BME280;47349;55.640;37.692;2022-11-15T09:29:41;99502.06;;;-0.21;59.22
61484;BME280;47349;55.640;37.692;2022-11-15T09:32:41;99499.91;;;-0.27;59.78
61484;BME280;47349;55.640;37.692;2022-11-15T09:35:43;99508.84;;;-0.30;59.12
61484;BME280;47349;55.640;37.692;2022-11-15T09:38:44;99513.88;;;-0.14;59.43
61484;BME280;47349;55.640;37.692;2022-11-15T09:51:44;99507.78;;;-0.27;59.93
61484;BME280;47349;55.640;37.692;2022-11-15T09:54:36;99495.59;;;-0.28;59.93
61484;BME280;47349;55.640;37.692;2022-11-15T09:57:21;99503.75;;;-0.20;59.79
61484;BME280;47349;55.640;37.692;2022-11-15T10:05:52;99488.84;;;-0.32;60.21
61484;BME280;47349;55.640;37.692;2022-11-15T10:11:25;99499.22;;;-0.18;60.38
61484;BME280;47349;55.640;37.692;2022-11-15T10:14:10;99487.28;;;-0.11;60.17
61484;BME280;47349;55.640;37.692;2022-11-15T10:17:14;99471.78;;;-0.27;60.02
61484;BME280;47349;55.640;37.692;2022-11-15T10:20:14;99500.91;;;-0.17;60.20
61484;BME280;47349;55.640;37.692;2022-11-15T10:23:00;99481.59;;;-0.29;60.51
61484;BME280;47349;55.640;37.692;2022-11-15T10:25:42;99463.31;;;-0.19;60.55
61484;BME280;47349;55.640;37.692;2022-11-15T10:28:28;99466.19;;;-0.11;59.93
61484;BME280;47349;55.640;37.692;2022-11-15T10:31:27;99438.75;;;-0.19;60.41
61484;BME280;47349;55.640;37.692;2022-11-15T10:34:23;99444.53;;;-0.14;60.10
61484;BME280;47349;55.640;37.692;2022-11-15T10:37:04;99433.22;;;-0.28;60.28
61484;BME280;47349;55.640;37.692;2022-11-15T10:40:05;99427.00;;;-0.27;60.83
61484;BME280;47349;55.640;37.692;2022-11-15T10:42:48;99409.47;;;-0.39;60.77
61484;BME280;47349;55.640;37.692;2022-11-15T10:45:32;99439.16;;;-0.13;60.83
61484;BME280;47349;55.640;37.692;2022-11-15T10:50:56;99428.06;;;-0.29;60.65
61484;BME280;47349;55.640;37.692;2022-11-15T10:53:44;99435.06;;;-0.17;60.78
61484;BME280;47349;55.640;37.692;2022-11-15T10:56:28;99431.94;;;-0.22;61.11
61484;BME280;47349;55.640;37.692;2022-11-15T10:59:28;99422.06;;;-0.31;60.91
61484;BME280;47349;55.640;37.692;2022-11-15T11:05:36;99417.78;;;-0.21;61.14
61484;BME280;47349;55.640;37.692;2022-11-15T11:08:31;99373.66;;;-0.53;61.30
61484;BME280;47349;55.640;37.692;2022-11-15T11:11:15;99389.50;;;-0.30;61.25
61484;BME280;47349;55.640;37.692;2022-11-15T11:14:11;99409.94;;;-0.10;60.68
61484;BME280;47349;55.640;37.692;2022-11-15T11:17:03;99405.19;;;-0.05;61.01
61484;BME280;47349;55.640;37.692;2022-11-15T11:19:53;99398.69;;;-0.12;60.52
61484;BME280;47349;55.640;37.692;2022-11-15T11:23:05;99366.44;;;-0.27;60.51
61484;BME280;47349;55.640;37.692;2022-11-15T11:44:53;99389.56;;;-0.19;61.11
61484;BME280;47349;55.640;37.692;2022-11-15T11:48:14;99389.16;;;-0.26;61.50
61484;BME280;47349;55.640;37.692;2022-11-15T11:51:08;99385.81;;;-0.28;62.01
61484;BME280;47349;55.640;37.692;2022-11-15T11:54:12;99369.03;;;-0.38;62.32
61484;BME280;47349;55.640;37.692;2022-11-15T11:57:06;99369.38;;;-0.42;63.64
61484;BME280;47349;55.640;37.692;2022-11-15T12:00:00;99379.16;;;-0.44;66.46
61484;BME280;47349;55.640;37.692;2022-11-15T12:03:14;99365.59;;;-0.62;67.47
61484;BME280;47349;55.640;37.692;2022-11-15T12:06:02;99365.91;;;-0.67;68.03
61484;BME280;47349;55.640;37.692;2022-11-15T12:08:53;99332.31;;;-0.87;68.16
61484;BME280;47349;55.640;37.692;2022-11-15T12:14:56;99366.41;;;-0.62;68.80
61484;BME280;47349;55.640;37.692;2022-11-15T12:17:40;99375.94;;;-0.72;69.82
61484;BME280;47349;55.640;37.692;2022-11-15T12:20:24;99359.41;;;-0.74;70.65
61484;BME280;47349;55.640;37.692;2022-11-15T12:23:13;99355.56;;;-0.81;70.95
61484;BME280;47349;55.640;37.692;2022-11-15T12:26:08;99350.31;;;-0.81;71.71
61484;BME280;47349;55.640;37.692;2022-11-15T12:28:57;99350.91;;;-0.78;71.70
61484;BME280;47349;55.640;37.692;2022-11-15T12:31:44;99325.72;;;-0.93;72.37
61484;BME280;47349;55.640;37.692;2022-11-15T12:34:43;99326.78;;;-0.95;72.46
61484;BME280;47349;55.640;37.692;2022-11-15T12:40:25;99334.38;;;-1.04;71.83
61484;BME280;47349;55.640;37.692;2022-11-15T12:46:02;99313.56;;;-1.31;74.28
61484;BME280;47349;55.640;37.692;2022-11-15T12:48:49;99332.22;;;-1.22;74.63
61484;BME280;47349;55.640;37.692;2022-11-15T13:03:17;99317.16;;;-1.44;79.09
61484;BME280;47349;55.640;37.692;2022-11-15T13:06:43;99302.06;;;-1.53;79.31
61484;BME280;47349;55.640;37.692;2022-11-15T13:18:25;99265.91;;;-1.63;82.01
61484;BME280;47349;55.640;37.692;2022-11-15T13:21:26;99291.81;;;-1.45;82.41
61484;BME280;47349;55.640;37.692;2022-11-15T13:24:46;99261.59;;;-1.64;83.11
61484;BME280;47349;55.640;37.692;2022-11-15T13:27:42;99260.34;;;-1.71;83.13
61484;BME280;47349;55.640;37.692;2022-11-15T13:34:28;99286.78;;;-1.48;83.18
61484;BME280;47349;55.640;37.692;2022-11-15T13:37:37;99250.06;;;-1.74;83.49
61484;BME280;47349;55.640;37.692;2022-11-15T13:41:22;99260.53;;;-1.61;83.86
61484;BME280;47349;55.640;37.692;2022-11-15T13:45:00;99237.44;;;-1.69;84.79
61484;BME280;47349;55.640;37.692;2022-11-15T13:48:32;99254.44;;;-1.62;85.77
61484;BME280;47349;55.640;37.692;2022-11-15T13:51:46;99262.44;;;-1.63;86.50
61484;BME280;47349;55.640;37.692;2022-11-15T13:55:21;99234.97;;;-1.83;86.88
61484;BME280;47349;55.640;37.692;2022-11-15T13:58:47;99258.88;;;-1.75;88.48
61484;BME280;47349;55.640;37.692;2022-11-15T14:01:55;99239.59;;;-1.87;88.82
61484;BME280;47349;55.640;37.692;2022-11-15T14:05:14;99245.75;;;-1.75;89.20
61484;BME280;47349;55.640;37.692;2022-11-15T14:11:26;99233.19;;;-1.95;89.75
61484;BME280;47349;55.640;37.692;2022-11-15T14:14:52;99249.44;;;-1.77;90.03
61484;BME280;47349;55.640;37.692;2022-11-15T14:17:45;99256.38;;;-1.76;89.24
61484;BME280;47349;55.640;37.692;2022-11-15T14:20:35;99253.88;;;-1.78;88.77
61484;BME280;47349;55.640;37.692;2022-11-15T14:23:47;99242.13;;;-1.98;88.55
61484;BME280;47349;55.640;37.692;2022-11-15T14:26:34;99253.75;;;-1.89;88.67
61484;BME280;47349;55.640;37.692;2022-11-15T14:30:21;99222.69;;;-1.95;90.15
61484;BME280;47349;55.640;37.692;2022-11-15T14:37:49;99235.94;;;-1.60;91.94
61484;BME280;47349;55.640;37.692;2022-11-15T14:40:53;99214.31;;;-1.64;90.14
61484;BME280;47349;55.640;37.692;2022-11-15T14:44:10;99223.03;;;-1.63;89.96
61484;BME280;47349;55.640;37.692;2022-11-15T14:47:14;99213.66;;;-1.54;90.33
61484;BME280;47349;55.640;37.692;2022-11-15T14:50:19;99212.19;;;-1.59;90.12
61484;BME280;47349;55.640;37.692;2022-11-15T14:53:22;99212.28;;;-1.60;91.01
61484;BME280;47349;55.640;37.692;2022-11-15T14:56:31;99198.56;;;-1.64;91.36
61484;BME280;47349;55.640;37.692;2022-11-15T14:59:16;99164.19;;;-1.97;91.05
61484;BME280;47349;55.640;37.692;2022-11-15T15:02:20;99195.41;;;-1.69;90.68
61484;BME280;47349;55.640;37.692;2022-11-15T15:05:29;99167.22;;;-1.91;90.09
61484;BME280;47349;55.640;37.692;2022-11-15T15:08:25;99190.38;;;-1.72;90.51
61484;BME280;47349;55.640;37.692;2022-11-15T15:12:32;99190.16;;;-1.69;89.31
61484;BME280;47349;55.640;37.692;2022-11-15T15:15:35;99169.38;;;-1.85;89.22
61484;BME280;47349;55.640;37.692;2022-11-15T15:18:22;99175.56;;;-1.73;88.93
61484;BME280;47349;55.640;37.692;2022-11-15T15:21:26;99158.69;;;-1.82;89.44
61484;BME280;47349;55.640;37.692;2022-11-15T15:24:49;99161.94;;;-1.78;89.21
61484;BME280;47349;55.640;37.692;2022-11-15T15:27:51;99177.75;;;-1.67;89.19
61484;BME280;47349;55.640;37.692;2022-11-15T15:31:11;99162.00;;;-1.79;89.74
61484;BME280;47349;55.640;37.692;2022-11-15T15:34:15;99159.22;;;-1.89;89.85
61484;BME280;47349;55.640;37.692;2022-11-15T15:37:39;99179.16;;;-1.74;90.46
61484;BME280;47349;55.640;37.692;2022-11-15T15:40:26;99158.78;;;-1.83;90.96
61484;BME280;47349;55.640;37.692;2022-11-15T15:43:10;99157.97;;;-1.84;90.77
61484;BME280;47349;55.640;37.692;2022-11-15T15:46:17;99125.06;;;-1.89;90.84
61484;BME280;47349;55.640;37.692;2022-11-15T15:49:00;99164.31;;;-1.75;90.66
61484;BME280;47349;55.640;37.692;2022-11-15T15:51:43;99135.38;;;-1.86;91.18
61484;BME280;47349;55.640;37.692;2022-11-15T15:54:47;99141.84;;;-1.79;91.48
61484;BME280;47349;55.640;37.692;2022-11-15T15:57:53;99124.34;;;-1.91;91.65
61484;BME280;47349;55.640;37.692;2022-11-15T16:00:35;99120.88;;;-1.92;91.63
61484;BME280;47349;55.640;37.692;2022-11-15T16:03:41;99128.69;;;-1.79;91.38
61484;BME280;47349;55.640;37.692;2022-11-15T16:06:40;99129.66;;;-1.80;91.86
61484;BME280;47349;55.640;37.692;2022-11-15T16:09:26;99111.69;;;-1.97;91.67
61484;BME280;47349;55.640;37.692;2022-11-15T16:12:46;99129.09;;;-1.96;92.69
61484;BME280;47349;55.640;37.692;2022-11-15T16:15:35;99115.69;;;-2.04;92.64
61484;BME280;47349;55.640;37.692;2022-11-15T16:18:04;99092.00;;;-2.16;92.60
61484;BME280;47349;55.640;37.692;2022-11-15T16:23:02;99126.03;;;-1.90;92.64
61484;BME280;47349;55.640;37.692;2022-11-15T16:25:40;99121.72;;;-1.91;92.11
61484;BME280;47349;55.640;37.692;2022-11-15T16:28:23;99121.09;;;-1.95;92.13
61484;BME280;47349;55.640;37.692;2022-11-15T16:31:11;99108.75;;;-2.05;92.12
61484;BME280;47349;55.640;37.692;2022-11-15T16:33:40;99080.03;;;-2.20;92.63
61484;BME280;47349;55.640;37.692;2022-11-15T16:36:23;99095.13;;;-2.11;92.43
61484;BME280;47349;55.640;37.692;2022-11-15T16:39:24;99123.00;;;-1.97;92.86
61484;BME280;47349;55.640;37.692;2022-11-15T16:42:09;99074.78;;;-2.20;93.33
61484;BME280;47349;55.640;37.692;2022-11-15T16:44:51;99093.00;;;-2.05;93.15
61484;BME280;47349;55.640;37.692;2022-11-15T16:47:33;99064.94;;;-2.29;93.55
61484;BME280;47349;55.640;37.692;2022-11-15T16:50:26;99100.16;;;-2.08;93.79
61484;BME280;47349;55.640;37.692;2022-11-15T16:53:10;99105.41;;;-2.08;93.82
61484;BME280;47349;55.640;37.692;2022-11-15T16:55:53;99100.16;;;-2.08;94.36
61484;BME280;47349;55.640;37.692;2022-11-15T16:58:38;99107.09;;;-2.07;93.75
61484;BME280;47349;55.640;37.692;2022-11-15T17:01:39;99078.56;;;-2.24;93.96
61484;BME280;47349;55.640;37.692;2022-11-15T17:04:46;99092.63;;;-2.12;93.95
61484;BME280;47349;55.640;37.692;2022-11-15T17:07:29;99090.69;;;-2.10;93.97
61484;BME280;47349;55.640;37.692;2022-11-15T17:10:11;99082.78;;;-2.21;94.28
61484;BME280;47349;55.640;37.692;2022-11-15T17:12:57;99081.81;;;-2.20;94.20
61484;BME280;47349;55.640;37.692;2022-11-15T17:15:38;99084.00;;;-2.14;94.51
61484;BME280;47349;55.640;37.692;2022-11-15T17:18:12;99073.56;;;-2.27;93.99
61484;BME280;47349;55.640;37.692;2022-11-15T17:20:51;99057.69;;;-2.25;94.11
61484;BME280;47349;55.640;37.692;2022-11-15T17:23:33;99079.38;;;-2.11;94.54
61484;BME280;47349;55.640;37.692;2022-11-15T17:26:15;99039.34;;;-2.38;94.19
61484;BME280;47349;55.640;37.692;2022-11-15T17:29:02;99062.81;;;-2.24;94.39
61484;BME280;47349;55.640;37.692;2022-11-15T17:31:37;99056.34;;;-2.31;94.85
61484;BME280;47349;55.640;37.692;2022-11-15T17:34:08;99055.03;;;-2.49;94.46
61484;BME280;47349;55.640;37.692;2022-11-15T17:36:35;99076.69;;;-2.22;94.97
61484;BME280;47349;55.640;37.692;2022-11-15T17:39:05;99078.66;;;-2.13;94.60
61484;BME280;47349;55.640;37.692;2022-11-15T17:41:32;99075.06;;;-2.12;94.95
61484;BME280;47349;55.640;37.692;2022-11-15T17:44:00;99051.34;;;-2.23;95.06